Time;durP1;ratioP1;P1;durP2;ratioP2;P2;SDS_P1;SDS_P2;PMS_P1;PMS_P2;Temp;Humidity;BMP_temperature;BMP_pressure;BME280_temperature;BME280_humidity;BME280_pressure;Samples;Min_cycle;Max_cycle;Signal;HPM_P1;HPM_P2
2024/01/15 00:01:17;;;;;;;10.23;5.85;;;;;;;;;;5072070;28;20120;-67
2024/01/15 00:03:42;;;;;;;11.45;5.22;;;;;;;;;;5072326;28;20107;-67
2024/01/15 00:06:07;;;;;;;8.38;4.60;;;;;;;;;;5072177;28;20028;-67
2024/01/15 00:08:33;;;;;;;8.73;3.92;;;;;;;;;;5075973;28;20123;-67
2024/01/15 00:10:58;;;;;;;10.30;4.78;;;;;;;;;;5076316;28;20028;-67
2024/01/15 00:13:24;;;;;;;10.32;5.22;;;;;;;;;;5075816;28;20027;-67
2024/01/15 00:15:49;;;;;;;9.38;4.68;;;;;;;;;;5058079;28;20395;-67
2024/01/15 00:18:14;;;;;;;7.93;4.22;;;;;;;;;;5075895;28;20025;-66
2024/01/15 00:20:40;;;;;;;10.63;5.18;;;;;;;;;;5075970;28;20469;-66
2024/01/15 00:23:05;;;;;;;8.80;4.45;;;;;;;;;;5075782;28;20024;-67
2024/01/15 00:25:31;;;;;;;8.90;5.05;;;;;;;;;;5075732;28;20024;-67
2024/01/15 00:27:56;;;;;;;10.27;5.00;;;;;;;;;;5075808;28;20120;-67
2024/01/15 00:30:22;;;;;;;10.27;5.47;;;;;;;;;;5075828;28;20441;-67
2024/01/15 00:32:47;;;;;;;10.00;5.43;;;;;;;;;;5075677;28;20020;-67
2024/01/15 00:35:13;;;;;;;6.88;3.95;;;;;;;;;;5075848;28;20379;-67
2024/01/15 00:37:38;;;;;;;7.05;4.30;;;;;;;;;;5075388;28;20028;-67
2024/01/15 00:40:04;;;;;;;7.55;4.20;;;;;;;;;;5057495;28;20539;-67
2024/01/15 00:42:30;;;;;;;10.93;5.15;;;;;;;;;;5075594;28;20052;-67
2024/01/15 00:44:55;;;;;;;8.98;4.75;;;;;;;;;;5075421;28;20068;-67
2024/01/15 00:47:21;;;;;;;8.18;4.45;;;;;;;;;;5075311;28;20116;-67
2024/01/15 00:49:46;;;;;;;9.23;4.78;;;;;;;;;;5075544;28;20492;-67
2024/01/15 00:52:11;;;;;;;9.73;4.95;;;;;;;;;;5075021;28;20090;-67
2024/01/15 00:54:37;;;;;;;8.27;4.53;;;;;;;;;;5075332;28;20032;-67
2024/01/15 00:57:03;;;;;;;7.70;3.97;;;;;;;;;;5075228;28;20060;-67
2024/01/15 00:59:29;;;;;;;10.48;5.10;;;;;;;;;;5074701;28;20471;-67
2024/01/15 01:01:54;;;;;;;8.32;4.53;;;;;;;;;;5075238;28;20468;-67
2024/01/15 01:04:19;;;;;;;8.55;4.20;;;;;;;;;;5075273;28;20413;-67
2024/01/15 01:06:45;;;;;;;9.90;4.63;;;;;;;;;;5074893;28;20024;-67
2024/01/15 01:09:10;;;;;;;12.57;5.40;;;;;;;;;;5074949;28;20410;-67
2024/01/15 01:11:36;;;;;;;7.25;4.18;;;;;;;;;;5074934;28;20426;-67
2024/01/15 01:14:01;;;;;;;8.98;5.13;;;;;;;;;;5075041;28;20379;-67
2024/01/15 01:16:27;;;;;;;8.48;4.47;;;;;;;;;;5074925;28;20498;-67
2024/01/15 01:18:52;;;;;;;8.65;4.90;;;;;;;;;;5074002;28;20503;-67
2024/01/15 01:21:17;;;;;;;8.30;4.82;;;;;;;;;;5074430;28;20094;-67
2024/01/15 01:23:43;;;;;;;8.80;5.00;;;;;;;;;;5075001;28;20027;-67
2024/01/15 01:26:08;;;;;;;7.15;3.67;;;;;;;;;;5074796;28;20024;-67
2024/01/15 01:28:34;;;;;;;5.90;2.85;;;;;;;;;;5074694;28;20418;-67
2024/01/15 01:30:59;;;;;;;7.13;3.67;;;;;;;;;;5074629;28;20044;-67
2024/01/15 01:33:25;;;;;;;7.65;4.13;;;;;;;;;;5074514;28;20035;-67
2024/01/15 01:35:50;;;;;;;9.50;4.72;;;;;;;;;;5074438;28;20024;-67
2024/01/15 01:38:16;;;;;;;8.15;4.45;;;;;;;;;;5074517;28;20028;-66
2024/01/15 01:40:41;;;;;;;7.68;4.15;;;;;;;;;;5074577;28;20514;-67
2024/01/15 01:43:09;;;;;;;8.02;4.47;;;;;;;;;;5074411;28;20031;-67
2024/01/15 01:45:34;;;;;;;7.22;4.15;;;;;;;;;;5074081;28;20620;-67
2024/01/15 01:48:00;;;;;;;5.75;3.80;;;;;;;;;;5074308;28;20093;-67
2024/01/15 01:50:26;;;;;;;4.63;3.08;;;;;;;;;;5074221;28;20025;-67
2024/01/15 01:52:51;;;;;;;5.88;2.60;;;;;;;;;;5056102;28;20114;-67
2024/01/15 01:55:18;;;;;;;3.28;2.10;;;;;;;;;;5073847;28;20028;-67
2024/01/15 01:57:44;;;;;;;5.00;2.75;;;;;;;;;;5074020;28;20043;-67
2024/01/15 02:00:10;;;;;;;13.02;4.93;;;;;;;;;;5073871;28;20033;-67
2024/01/15 02:02:36;;;;;;;3.70;1.90;;;;;;;;;;5074010;28;20090;-67
2024/01/15 02:05:04;;;;;;;3.20;1.90;;;;;;;;;;5073873;28;20028;-67
2024/01/15 02:07:31;;;;;;;7.75;3.40;;;;;;;;;;5073933;28;20028;-67
2024/01/15 02:09:56;;;;;;;3.53;1.52;;;;;;;;;;5073922;28;20032;-66
2024/01/15 02:12:22;;;;;;;3.58;1.88;;;;;;;;;;5073979;28;20028;-66
2024/01/15 02:14:47;;;;;;;5.75;2.40;;;;;;;;;;5073877;28;20024;-66
2024/01/15 02:17:13;;;;;;;5.03;1.90;;;;;;;;;;5073766;28;20104;-66
2024/01/15 02:19:40;;;;;;;5.78;1.98;;;;;;;;;;5073311;28;20052;-67
2024/01/15 02:22:06;;;;;;;3.63;1.45;;;;;;;;;;5073715;28;20031;-67
2024/01/15 02:24:31;;;;;;;6.10;1.17;;;;;;;;;;5073646;28;20032;-66
2024/01/15 02:26:57;;;;;;;6.30;1.88;;;;;;;;;;5073652;28;20078;-66
2024/01/15 02:29:22;;;;;;;2.75;1.27;;;;;;;;;;5073246;28;20391;-66
2024/01/15 02:31:47;;;;;;;3.95;1.73;;;;;;;;;;5073639;28;20375;-66
2024/01/15 02:34:13;;;;;;;3.83;1.48;;;;;;;;;;5073329;28;20028;-66
2024/01/15 02:36:38;;;;;;;6.22;1.30;;;;;;;;;;5073475;28;20105;-66
2024/01/15 02:39:04;;;;;;;4.82;1.65;;;;;;;;;;5073152;28;20028;-66
2024/01/15 02:41:29;;;;;;;6.07;1.63;;;;;;;;;;5073114;28;20032;-66
2024/01/15 02:43:55;;;;;;;6.70;2.15;;;;;;;;;;5073222;28;20028;-66
2024/01/15 02:46:20;;;;;;;4.15;1.70;;;;;;;;;;5073021;28;20025;-66
2024/01/15 02:48:45;;;;;;;4.32;1.38;;;;;;;;;;5072966;28;20036;-66
2024/01/15 02:51:11;;;;;;;2.70;1.30;;;;;;;;;;5073108;28;20502;-66
2024/01/15 02:53:37;;;;;;;2.42;1.27;;;;;;;;;;5072697;28;20377;-66
2024/01/15 02:56:03;;;;;;;2.63;1.65;;;;;;;;;;5072798;28;20028;-66
2024/01/15 02:58:28;;;;;;;4.80;1.63;;;;;;;;;;5072614;28;20028;-66
2024/01/15 03:00:53;;;;;;;4.97;1.80;;;;;;;;;;5035178;28;20040;-66
2024/01/15 03:03:19;;;;;;;3.28;1.30;;;;;;;;;;5052583;28;20032;-66
2024/01/15 03:05:44;;;;;;;9.18;1.65;;;;;;;;;;5052886;28;20053;-66
2024/01/15 03:08:10;;;;;;;3.42;1.30;;;;;;;;;;5052875;28;20027;-66
2024/01/15 03:10:35;;;;;;;10.20;1.33;;;;;;;;;;5052908;28;20025;-66
2024/01/15 03:13:00;;;;;;;3.58;1.40;;;;;;;;;;5052848;28;20021;-66
2024/01/15 03:15:26;;;;;;;2.35;1.35;;;;;;;;;;5052493;28;20557;-66
2024/01/15 03:17:51;;;;;;;9.50;1.55;;;;;;;;;;5052527;28;20029;-66
2024/01/15 03:20:17;;;;;;;2.50;1.13;;;;;;;;;;5052517;28;20021;-66
2024/01/15 03:22:42;;;;;;;4.35;1.65;;;;;;;;;;5034648;28;20476;-66
2024/01/15 03:25:08;;;;;;;3.75;1.33;;;;;;;;;;5052624;28;20033;-66
2024/01/15 03:27:33;;;;;;;6.93;1.10;;;;;;;;;;5052320;28;20052;-66
2024/01/15 03:29:59;;;;;;;5.20;1.45;;;;;;;;;;5052466;28;20430;-66
2024/01/15 03:32:24;;;;;;;4.95;1.70;;;;;;;;;;5052320;28;20029;-66
2024/01/15 03:34:52;;;;;;;3.88;1.60;;;;;;;;;;5052438;28;20033;-66
2024/01/15 03:37:17;;;;;;;5.15;2.33;;;;;;;;;;5052226;28;20017;-66
2024/01/15 03:39:43;;;;;;;4.63;1.67;;;;;;;;;;5052254;28;20059;-66
2024/01/15 03:42:08;;;;;;;4.30;1.55;;;;;;;;;;5051793;28;20024;-66
2024/01/15 03:44:33;;;;;;;3.55;1.45;;;;;;;;;;5053667;28;20029;-66
2024/01/15 03:46:59;;;;;;;7.18;1.80;;;;;;;;;;5072090;28;20110;-66
2024/01/15 03:49:24;;;;;;;3.92;1.48;;;;;;;;;;5072023;28;20024;-66
2024/01/15 03:51:50;;;;;;;3.85;1.70;;;;;;;;;;5072352;28;20101;-66
2024/01/15 03:54:15;;;;;;;1.90;1.15;;;;;;;;;;5072118;28;20048;-67
2024/01/15 03:56:41;;;;;;;7.03;1.77;;;;;;;;;;5072045;28;20033;-66
2024/01/15 03:59:06;;;;;;;7.53;1.83;;;;;;;;;;5053533;28;20024;-66
2024/01/15 04:01:31;;;;;;;5.43;2.63;;;;;;;;;;5071722;28;20031;-66
2024/01/15 04:03:57;;;;;;;6.68;1.50;;;;;;;;;;5072083;28;20020;-67
2024/01/15 04:06:22;;;;;;;7.18;2.10;;;;;;;;;;5071857;28;20028;-66
2024/01/15 04:08:48;;;;;;;6.03;1.60;;;;;;;;;;5072229;28;20048;-66
2024/01/15 04:11:13;;;;;;;1.98;1.38;;;;;;;;;;5071857;28;20040;-66
2024/01/15 04:13:38;;;;;;;8.13;1.45;;;;;;;;;;5071869;28;20028;-66
2024/01/15 04:16:04;;;;;;;7.43;2.15;;;;;;;;;;5071787;28;20466;-67
2024/01/15 04:18:30;;;;;;;4.10;1.42;;;;;;;;;;5071827;28;20060;-66
2024/01/15 04:20:55;;;;;;;5.38;1.88;;;;;;;;;;5072096;28;20099;-66
2024/01/15 04:23:21;;;;;;;4.05;1.45;;;;;;;;;;5071477;28;20016;-66
2024/01/15 04:25:46;;;;;;;5.13;1.60;;;;;;;;;;5071686;28;20442;-66
2024/01/15 04:28:12;;;;;;;4.28;1.60;;;;;;;;;;5071826;28;20017;-66
2024/01/15 04:30:37;;;;;;;3.60;1.63;;;;;;;;;;5053609;28;20024;-67
2024/01/15 04:33:03;;;;;;;5.90;1.42;;;;;;;;;;5071930;28;20035;-66
2024/01/15 04:35:29;;;;;;;4.40;1.80;;;;;;;;;;5071612;28;20016;-66
2024/01/15 04:37:55;;;;;;;7.22;1.70;;;;;;;;;;5071790;28;20029;-66
2024/01/15 04:40:20;;;;;;;8.68;2.78;;;;;;;;;;5071604;28;20031;-66
2024/01/15 04:42:46;;;;;;;6.28;1.48;;;;;;;;;;5071706;28;20044;-66
2024/01/15 04:45:11;;;;;;;2.92;1.60;;;;;;;;;;5071210;28;20076;-66
2024/01/15 04:47:38;;;;;;;6.95;1.67;;;;;;;;;;5071637;28;20108;-66
2024/01/15 04:50:04;;;;;;;3.70;1.70;;;;;;;;;;5071539;28;20025;-66
2024/01/15 04:52:30;;;;;;;4.82;1.90;;;;;;;;;;5071458;28;20442;-66
2024/01/15 04:54:55;;;;;;;4.07;1.67;;;;;;;;;;5074111;28;20073;-66
2024/01/15 04:57:20;;;;;;;3.67;1.42;;;;;;;;;;5074414;28;20021;-66
2024/01/15 04:59:46;;;;;;;8.18;1.92;;;;;;;;;;5074844;28;20119;-66
2024/01/15 05:02:11;;;;;;;4.53;1.85;;;;;;;;;;5075111;28;20024;-66
2024/01/15 05:04:37;;;;;;;4.28;1.60;;;;;;;;;;5075202;28;20048;-66
2024/01/15 05:07:02;;;;;;;4.72;1.35;;;;;;;;;;5075047;28;20056;-66
2024/01/15 05:09:28;;;;;;;3.95;1.70;;;;;;;;;;5074845;28;20428;-67
2024/01/15 05:11:54;;;;;;;4.07;1.80;;;;;;;;;;5074778;28;20035;-66
2024/01/15 05:14:19;;;;;;;4.57;1.65;;;;;;;;;;5074823;28;20049;-66
2024/01/15 05:16:49;;;;;;;7.38;1.70;;;;;;;;;;5074847;28;20021;-66
2024/01/15 05:19:14;;;;;;;3.37;1.57;;;;;;;;;;5074772;28;20036;-66
2024/01/15 05:21:40;;;;;;;3.03;1.00;;;;;;;;;;5074795;28;20482;-66
2024/01/15 05:24:05;;;;;;;6.53;2.05;;;;;;;;;;5056821;28;20020;-66
2024/01/15 05:26:31;;;;;;;5.57;1.30;;;;;;;;;;5074510;28;20039;-66
2024/01/15 05:28:56;;;;;;;9.13;1.20;;;;;;;;;;5074549;28;20032;-66
2024/01/15 05:31:22;;;;;;;3.53;0.82;;;;;;;;;;5074389;28;20472;-66
2024/01/15 05:33:47;;;;;;;2.35;0.88;;;;;;;;;;5074593;28;20043;-66
2024/01/15 05:36:12;;;;;;;2.58;1.10;;;;;;;;;;5074489;28;20173;-66
2024/01/15 05:38:38;;;;;;;2.95;1.10;;;;;;;;;;5074364;28;20046;-66
2024/01/15 05:41:05;;;;;;;2.75;1.20;;;;;;;;;;5074518;28;20032;-66
2024/01/15 05:43:30;;;;;;;5.45;1.10;;;;;;;;;;5073979;28;20035;-66
2024/01/15 05:45:56;;;;;;;3.92;1.25;;;;;;;;;;5074155;28;20033;-66
2024/01/15 05:48:21;;;;;;;6.95;1.58;;;;;;;;;;5074100;28;20028;-66
2024/01/15 05:50:47;;;;;;;9.35;1.50;;;;;;;;;;5056286;28;20031;-66
2024/01/15 05:53:12;;;;;;;3.88;1.20;;;;;;;;;;5074032;28;20036;-66
2024/01/15 05:55:40;;;;;;;2.58;1.02;;;;;;;;;;5073978;28;20035;-66
2024/01/15 05:58:06;;;;;;;5.78;1.52;;;;;;;;;;5073463;28;20013;-66
2024/01/15 06:00:33;;;;;;;7.43;1.27;;;;;;;;;;5074054;28;20123;-66
2024/01/15 06:02:59;;;;;;;5.38;1.10;;;;;;;;;;5074109;28;20103;-66
2024/01/15 06:05:24;;;;;;;3.15;1.13;;;;;;;;;;5073386;28;20028;-66
2024/01/15 06:07:50;;;;;;;7.57;1.50;;;;;;;;;;5073650;28;20438;-67
2024/01/15 06:10:15;;;;;;;6.55;1.58;;;;;;;;;;5073634;28;20032;-67
2024/01/15 06:12:43;;;;;;;4.78;1.20;;;;;;;;;;5073492;28;20020;-67
2024/01/15 06:15:08;;;;;;;4.43;1.25;;;;;;;;;;5073887;28;20044;-67
2024/01/15 06:17:34;;;;;;;8.05;1.60;;;;;;;;;;5073614;28;20471;-67
2024/01/15 06:19:59;;;;;;;4.60;1.02;;;;;;;;;;5073603;28;20024;-67
2024/01/15 06:22:25;;;;;;;6.65;1.52;;;;;;;;;;5073842;28;20016;-67
2024/01/15 06:24:50;;;;;;;4.10;1.35;;;;;;;;;;5073470;28;20394;-66
2024/01/15 06:27:16;;;;;;;7.57;1.10;;;;;;;;;;5055718;28;20090;-66
2024/01/15 06:29:46;;;;;;;2.80;1.17;;;;;;;;;;5073431;28;20111;-67
2024/01/15 06:32:12;;;;;;;3.75;1.75;;;;;;;;;;5073535;28;20523;-66
2024/01/15 06:34:37;;;;;;;5.57;1.25;;;;;;;;;;5073550;28;20059;-67
2024/01/15 06:37:03;;;;;;;2.42;1.30;;;;;;;;;;5073396;28;20460;-67
2024/01/15 06:39:28;;;;;;;1.98;1.40;;;;;;;;;;5073005;28;20029;-67
2024/01/15 06:41:54;;;;;;;3.00;1.27;;;;;;;;;;5073401;28;20025;-67
2024/01/15 06:44:21;;;;;;;10.75;1.65;;;;;;;;;;5073030;28;20020;-67
2024/01/15 06:46:47;;;;;;;3.40;1.30;;;;;;;;;;5072907;28;20090;-67
2024/01/15 06:49:13;;;;;;;4.35;1.67;;;;;;;;;;5073232;28;20073;-67
2024/01/15 06:51:39;;;;;;;3.70;1.27;;;;;;;;;;5073087;28;20031;-67
2024/01/15 06:54:04;;;;;;;8.52;2.03;;;;;;;;;;5072365;28;20491;-67
2024/01/15 06:56:31;;;;;;;4.45;2.28;;;;;;;;;;5072979;28;20039;-67
2024/01/15 06:58:57;;;;;;;5.10;2.00;;;;;;;;;;5072660;28;20078;-67
2024/01/15 07:01:22;;;;;;;2.63;1.40;;;;;;;;;;5072833;28;20530;-67
2024/01/15 07:03:48;;;;;;;7.07;2.10;;;;;;;;;;5073062;28;20020;-67
2024/01/15 07:06:13;;;;;;;5.10;1.60;;;;;;;;;;5073032;28;20359;-67
2024/01/15 07:08:39;;;;;;;12.55;6.35;;;;;;;;;;5072685;28;20369;-67
2024/01/15 07:11:05;;;;;;;2.25;1.08;;;;;;;;;;5072719;28;20017;-67
2024/01/15 07:13:31;;;;;;;4.10;1.55;;;;;;;;;;5072755;28;20031;-67
2024/01/15 07:15:56;;;;;;;4.25;1.45;;;;;;;;;;5054281;28;20436;-67
2024/01/15 07:18:22;;;;;;;1.45;0.85;;;;;;;;;;5072446;28;20039;-67
2024/01/15 07:20:47;;;;;;;2.80;1.00;;;;;;;;;;5072685;28;20027;-67
2024/01/15 07:23:12;;;;;;;7.28;1.23;;;;;;;;;;5054500;28;20076;-67
2024/01/15 07:25:38;;;;;;;2.35;0.95;;;;;;;;;;5072591;28;20114;-67
2024/01/15 07:28:06;;;;;;;2.72;1.15;;;;;;;;;;5072702;28;20391;-67
2024/01/15 07:30:32;;;;;;;2.15;1.20;;;;;;;;;;5072275;28;20024;-67
2024/01/15 07:32:57;;;;;;;6.20;1.63;;;;;;;;;;5072684;28;20083;-67
2024/01/15 07:35:23;;;;;;;2.58;1.25;;;;;;;;;;5072480;28;20422;-67
2024/01/15 07:37:48;;;;;;;3.25;1.45;;;;;;;;;;5072356;28;20017;-67
2024/01/15 07:40:14;;;;;;;2.08;0.88;;;;;;;;;;5070619;28;20021;-67
2024/01/15 07:42:39;;;;;;;5.47;1.17;;;;;;;;;;5071947;28;20437;-67
2024/01/15 07:45:05;;;;;;;6.15;1.30;;;;;;;;;;5071311;28;20021;-67
2024/01/15 07:47:31;;;;;;;4.20;1.55;;;;;;;;;;5070520;28;20056;-67
2024/01/15 07:49:57;;;;;;;2.63;1.35;;;;;;;;;;5071656;28;20486;-67
2024/01/15 07:52:22;;;;;;;2.05;0.80;;;;;;;;;;5074645;28;20185;-67
2024/01/15 07:54:48;;;;;;;2.03;1.15;;;;;;;;;;5078490;28;20036;-67
2024/01/15 07:57:13;;;;;;;3.45;1.20;;;;;;;;;;5064416;28;20031;-67
2024/01/15 07:59:40;;;;;;;3.05;1.00;;;;;;;;;;5052850;28;20044;-67
2024/01/15 08:02:05;;;;;;;3.17;0.95;;;;;;;;;;5073877;28;20364;-67
2024/01/15 08:04:31;;;;;;;4.30;1.40;;;;;;;;;;5072038;28;20020;-67
2024/01/15 08:06:57;;;;;;;4.15;1.25;;;;;;;;;;5071714;28;20025;-67
2024/01/15 08:09:22;;;;;;;6.60;1.73;;;;;;;;;;5071694;28;20039;-67
2024/01/15 08:11:49;;;;;;;5.68;1.48;;;;;;;;;;5077837;28;20032;-67
2024/01/15 08:14:15;;;;;;;6.80;2.00;;;;;;;;;;5081637;28;20021;-67
2024/01/15 08:16:40;;;;;;;8.45;2.42;;;;;;;;;;5071798;28;20036;-67
2024/01/15 08:19:06;;;;;;;8.15;2.85;;;;;;;;;;5071797;28;20044;-67
2024/01/15 08:21:32;;;;;;;3.13;2.05;;;;;;;;;;5053782;28;20028;-67
2024/01/15 08:24:02;;;;;;;2.35;1.35;;;;;;;;;;5071727;28;20017;-67
2024/01/15 08:26:28;;;;;;;2.70;1.50;;;;;;;;;;5051662;28;20094;-67
2024/01/15 08:28:54;;;;;;;4.18;1.52;;;;;;;;;;5074293;28;20075;-67
2024/01/15 08:31:19;;;;;;;4.28;1.35;;;;;;;;;;5075486;28;20048;-67
2024/01/15 08:33:45;;;;;;;3.50;1.27;;;;;;;;;;5075764;28;20116;-67
2024/01/15 08:36:11;;;;;;;11.20;1.90;;;;;;;;;;5075444;28;20039;-67
2024/01/15 08:38:36;;;;;;;6.00;1.45;;;;;;;;;;5075574;28;20025;-67
2024/01/15 08:41:02;;;;;;;5.55;1.65;;;;;;;;;;5075477;28;20024;-67
2024/01/15 08:43:27;;;;;;;6.00;1.90;;;;;;;;;;5075361;28;20028;-67
2024/01/15 08:45:53;;;;;;;11.02;2.70;;;;;;;;;;5075162;28;20402;-67
2024/01/15 08:48:19;;;;;;;6.20;1.30;;;;;;;;;;5075297;28;20021;-67
2024/01/15 08:50:48;;;;;;;5.50;1.92;;;;;;;;;;5057127;28;20060;-67
2024/01/15 08:53:14;;;;;;;6.95;1.40;;;;;;;;;;5057294;28;20041;-67
2024/01/15 08:55:42;;;;;;;5.28;1.67;;;;;;;;;;5075106;28;20099;-67
2024/01/15 08:58:08;;;;;;;5.22;1.20;;;;;;;;;;5075354;28;20040;-67
2024/01/15 09:00:33;;;;;;;6.45;1.50;;;;;;;;;;5074812;28;20079;-67
2024/01/15 09:02:59;;;;;;;6.35;1.60;;;;;;;;;;5075151;28;20440;-67
2024/01/15 09:05:24;;;;;;;4.57;1.65;;;;;;;;;;5075824;28;20032;-67
2024/01/15 09:07:51;;;;;;;3.97;1.50;;;;;;;;;;5057063;28;20039;-67
2024/01/15 09:10:17;;;;;;;3.08;1.10;;;;;;;;;;5075039;28;20036;-67
2024/01/15 09:12:43;;;;;;;3.90;1.40;;;;;;;;;;5074990;28;20439;-66
2024/01/15 09:15:08;;;;;;;4.07;0.98;;;;;;;;;;5074719;28;20078;-67
2024/01/15 09:17:34;;;;;;;1.40;1.00;;;;;;;;;;5074678;28;20021;-67
2024/01/15 09:20:00;;;;;;;2.15;0.80;;;;;;;;;;5056668;28;20036;-66
2024/01/15 09:22:25;;;;;;;2.90;0.95;;;;;;;;;;5075004;28;20029;-67
2024/01/15 09:24:51;;;;;;;3.08;0.70;;;;;;;;;;5056962;28;20037;-67
2024/01/15 09:27:16;;;;;;;4.15;1.00;;;;;;;;;;5074560;28;20027;-67
2024/01/15 09:29:42;;;;;;;1.63;1.00;;;;;;;;;;5074684;28;20116;-67
2024/01/15 09:32:08;;;;;;;1.60;1.10;;;;;;;;;;5074696;28;20115;-67
2024/01/15 09:34:35;;;;;;;0.80;0.80;;;;;;;;;;5074400;28;20115;-67
2024/01/15 09:37:00;;;;;;;1.55;0.70;;;;;;;;;;5074540;28;20023;-67
2024/01/15 09:39:27;;;;;;;0.65;0.65;;;;;;;;;;5055317;28;20024;-67
2024/01/15 09:41:53;;;;;;;0.68;0.63;;;;;;;;;;5074501;28;20021;-67
2024/01/15 09:44:19;;;;;;;3.22;1.00;;;;;;;;;;5083730;28;20035;-67
2024/01/15 09:46:46;;;;;;;1.75;0.93;;;;;;;;;;5074280;28;20111;-67
2024/01/15 09:49:12;;;;;;;1.85;0.75;;;;;;;;;;5074038;28;20027;-67
2024/01/15 09:51:39;;;;;;;2.05;0.80;;;;;;;;;;5074253;28;20028;-67
2024/01/15 09:54:05;;;;;;;4.78;1.30;;;;;;;;;;5073947;28;20052;-67
2024/01/15 09:56:31;;;;;;;1.85;0.93;;;;;;;;;;5074168;28;20029;-67
2024/01/15 09:58:57;;;;;;;1.00;0.70;;;;;;;;;;5073805;28;20383;-67
2024/01/15 10:01:23;;;;;;;1.15;0.60;;;;;;;;;;5073832;28;20032;-67
2024/01/15 10:03:50;;;;;;;2.05;0.80;;;;;;;;;;5073941;28;20528;-67
2024/01/15 10:06:19;;;;;;;1.33;0.80;;;;;;;;;;5073802;28;20089;-67
2024/01/15 10:08:49;;;;;;;1.92;0.70;;;;;;;;;;5073912;28;20047;-68
2024/01/15 10:11:16;;;;;;;8.90;1.20;;;;;;;;;;5074019;28;20107;-67
2024/01/15 10:13:46;;;;;;;1.77;1.00;;;;;;;;;;5073743;28;20037;-67
2024/01/15 10:16:12;;;;;;;3.58;1.20;;;;;;;;;;5073838;28;20039;-67
2024/01/15 10:18:39;;;;;;;2.33;0.93;;;;;;;;;;5073516;28;20091;-67
2024/01/15 10:21:06;;;;;;;1.67;0.95;;;;;;;;;;5073713;28;20034;-67
2024/01/15 10:23:34;;;;;;;2.85;0.88;;;;;;;;;;5073215;28;20032;-67
2024/01/15 10:26:00;;;;;;;3.70;1.17;;;;;;;;;;5073712;28;20125;-66
2024/01/15 10:28:27;;;;;;;1.30;0.88;;;;;;;;;;5073736;28;20391;-66
2024/01/15 10:30:54;;;;;;;2.28;1.27;;;;;;;;;;5073568;28;20074;-67
2024/01/15 10:33:25;;;;;;;2.88;0.80;;;;;;;;;;5073133;28;20024;-67
2024/01/15 10:35:53;;;;;;;2.70;1.35;;;;;;;;;;5073483;28;20090;-67
2024/01/15 10:38:21;;;;;;;3.50;1.60;;;;;;;;;;5073372;28;20050;-67
2024/01/15 10:40:47;;;;;;;4.20;1.23;;;;;;;;;;5073269;28;20056;-67
2024/01/15 10:43:13;;;;;;;4.90;1.50;;;;;;;;;;5073280;28;20028;-67
2024/01/15 10:45:38;;;;;;;3.03;0.90;;;;;;;;;;5072843;28;20035;-67
2024/01/15 10:48:04;;;;;;;2.95;1.33;;;;;;;;;;5072728;28;20478;-67
2024/01/15 10:50:32;;;;;;;3.55;0.80;;;;;;;;;;5073185;28;20056;-67
2024/01/15 10:52:58;;;;;;;2.35;1.58;;;;;;;;;;5072873;28;20045;-67
2024/01/15 10:55:24;;;;;;;3.70;1.15;;;;;;;;;;5072764;28;20114;-67
2024/01/15 10:57:49;;;;;;;1.00;0.82;;;;;;;;;;5072912;28;20023;-67
2024/01/15 11:00:15;;;;;;;1.52;0.95;;;;;;;;;;5073362;28;20025;-67
2024/01/15 11:02:42;;;;;;;2.00;0.90;;;;;;;;;;5072690;28;20027;-67
2024/01/15 11:05:07;;;;;;;3.17;1.10;;;;;;;;;;5072509;28;20044;-67
2024/01/15 11:07:33;;;;;;;4.80;1.20;;;;;;;;;;5072627;28;20028;-67
2024/01/15 11:09:58;;;;;;;1.40;1.02;;;;;;;;;;5072685;28;20052;-67
2024/01/15 11:12:24;;;;;;;1.25;0.85;;;;;;;;;;5072659;28;20048;-67
2024/01/15 11:14:50;;;;;;;2.50;1.02;;;;;;;;;;5072257;28;20056;-67
2024/01/15 11:17:17;;;;;;;2.80;1.00;;;;;;;;;;5072499;28;20056;-67
2024/01/15 11:19:46;;;;;;;2.67;1.27;;;;;;;;;;5072377;28;20380;-67
2024/01/15 11:22:30;;;;;;;1.42;0.90;;;;;;;;;;5072475;28;20213;-67
2024/01/15 11:24:56;;;;;;;1.77;1.17;;;;;;;;;;5072297;28;20048;-67
2024/01/15 11:27:43;;;;;;;5.75;1.42;;;;;;;;;;5072230;28;20464;-67
2024/01/15 11:30:10;;;;;;;3.05;1.25;;;;;;;;;;5072274;28;20086;-67
2024/01/15 11:32:36;;;;;;;3.13;1.15;;;;;;;;;;5072401;28;20100;-67
2024/01/15 11:35:02;;;;;;;4.20;0.90;;;;;;;;;;5072253;28;20116;-67
2024/01/15 11:37:54;;;;;;;1.98;1.10;;;;;;;;;;5072089;28;20031;-67
2024/01/15 11:40:25;;;;;;;2.40;1.10;;;;;;;;;;5072235;28;20129;-67
2024/01/15 11:42:52;;;;;;;1.20;0.95;;;;;;;;;;5072131;28;20063;-67
2024/01/15 11:45:19;;;;;;;2.67;1.27;;;;;;;;;;5071732;28;20037;-67
2024/01/15 11:48:13;;;;;;;2.38;1.55;;;;;;;;;;5072016;28;20383;-67
2024/01/15 11:50:49;;;;;;;1.38;0.90;;;;;;;;;;5072269;28;20383;-67
2024/01/15 11:53:31;;;;;;;2.90;1.10;;;;;;;;;;5071873;28;20040;-67
2024/01/15 11:55:59;;;;;;;1.58;0.70;;;;;;;;;;5071726;28;20059;-67
2024/01/15 11:58:25;;;;;;;7.38;2.35;;;;;;;;;;5071391;28;20029;-67
2024/01/15 12:00:52;;;;;;;2.83;1.00;;;;;;;;;;5071553;28;20119;-68
2024/01/15 12:03:20;;;;;;;2.30;0.90;;;;;;;;;;5071428;28;20520;-66
2024/01/15 12:05:45;;;;;;;2.78;1.05;;;;;;;;;;5071737;28;20103;-67
2024/01/15 12:08:11;;;;;;;1.65;1.10;;;;;;;;;;5053897;28;20605;-67
2024/01/15 12:10:38;;;;;;;0.98;0.90;;;;;;;;;;5071904;28;20024;-67
2024/01/15 12:13:14;;;;;;;2.50;1.05;;;;;;;;;;5071416;28;20094;-67
2024/01/15 12:15:41;;;;;;;4.93;1.67;;;;;;;;;;5071637;28;20050;-67
2024/01/15 12:18:08;;;;;;;1.70;1.00;;;;;;;;;;5071620;28;20069;-67
2024/01/15 12:20:34;;;;;;;1.77;0.98;;;;;;;;;;5071706;28;20549;-67
2024/01/15 12:23:00;;;;;;;1.60;0.88;;;;;;;;;;5071346;28;20037;-67
2024/01/15 12:25:29;;;;;;;1.35;0.90;;;;;;;;;;5071396;28;20078;-67
2024/01/15 12:27:55;;;;;;;1.48;1.17;;;;;;;;;;5071565;28;20487;-67
2024/01/15 12:30:21;;;;;;;0.70;0.70;;;;;;;;;;5071738;28;20038;-67
2024/01/15 12:32:47;;;;;;;4.57;1.95;;;;;;;;;;5071564;28;20036;-67
2024/01/15 12:35:13;;;;;;;9.13;1.20;;;;;;;;;;5071446;28;20029;-67
2024/01/15 12:37:39;;;;;;;12.35;1.35;;;;;;;;;;5071570;28;20024;-67
2024/01/15 12:40:06;;;;;;;3.90;0.98;;;;;;;;;;5071199;28;20032;-67
2024/01/15 12:42:50;;;;;;;2.25;1.10;;;;;;;;;;5071289;28;20086;-67
2024/01/15 12:45:16;;;;;;;2.45;0.95;;;;;;;;;;5071361;28;20024;-67
2024/01/15 12:47:42;;;;;;;1.23;1.00;;;;;;;;;;5071484;28;20024;-67
2024/01/15 12:50:11;;;;;;;2.50;0.90;;;;;;;;;;5071642;28;20047;-67
2024/01/15 12:52:37;;;;;;;7.00;3.22;;;;;;;;;;5071460;28;20087;-67
2024/01/15 12:55:05;;;;;;;4.45;2.08;;;;;;;;;;5071169;28;20494;-67
2024/01/15 12:57:30;;;;;;;4.45;1.42;;;;;;;;;;5071149;28;20159;-67
2024/01/15 12:59:56;;;;;;;3.17;1.05;;;;;;;;;;5071372;28;20497;-67
2024/01/15 13:02:21;;;;;;;3.63;1.58;;;;;;;;;;5053757;28;20025;-67
2024/01/15 13:04:47;;;;;;;5.68;2.38;;;;;;;;;;5071375;28;20117;-67
2024/01/15 13:07:13;;;;;;;1.95;1.40;;;;;;;;;;5071320;28;20032;-67
2024/01/15 13:09:38;;;;;;;1.33;0.80;;;;;;;;;;5053211;28;20404;-67
2024/01/15 13:12:05;;;;;;;1.10;0.90;;;;;;;;;;5071050;28;20037;-67
2024/01/15 13:14:30;;;;;;;3.45;1.38;;;;;;;;;;5071863;28;20024;-67
2024/01/15 13:16:56;;;;;;;4.40;1.67;;;;;;;;;;5074765;28;20019;-67
2024/01/15 13:19:22;;;;;;;2.83;1.42;;;;;;;;;;5074597;28;20052;-67
2024/01/15 13:21:48;;;;;;;2.10;0.93;;;;;;;;;;5074767;28;20031;-67
2024/01/15 13:24:14;;;;;;;2.95;1.40;;;;;;;;;;5074828;28;20091;-67
2024/01/15 13:26:39;;;;;;;3.65;1.00;;;;;;;;;;5074552;28;20032;-67
2024/01/15 13:29:05;;;;;;;2.85;1.20;;;;;;;;;;5074705;28;20414;-67
2024/01/15 13:31:32;;;;;;;1.83;1.25;;;;;;;;;;5074570;28;20024;-67
2024/01/15 13:33:57;;;;;;;5.82;1.77;;;;;;;;;;5074654;28;20025;-67
2024/01/15 13:36:24;;;;;;;10.40;4.22;;;;;;;;;;5074597;28;20028;-67
2024/01/15 13:38:56;;;;;;;0.95;0.82;;;;;;;;;;5074106;28;20048;-67
2024/01/15 13:41:22;;;;;;;1.95;1.02;;;;;;;;;;5055806;28;20024;-67
2024/01/15 13:43:52;;;;;;;4.25;1.27;;;;;;;;;;5074498;28;20162;-67
2024/01/15 13:46:18;;;;;;;2.45;1.20;;;;;;;;;;5074152;28;20031;-67
2024/01/15 13:48:43;;;;;;;1.73;1.05;;;;;;;;;;5074275;28;20032;-67
2024/01/15 13:51:10;;;;;;;0.73;0.73;;;;;;;;;;5074165;28;20365;-67
2024/01/15 13:53:38;;;;;;;1.33;0.93;;;;;;;;;;5074110;28;21126;-67
2024/01/15 13:56:04;;;;;;;1.80;0.95;;;;;;;;;;5073853;28;20056;-67
2024/01/15 13:58:30;;;;;;;7.60;2.13;;;;;;;;;;5073636;28;20029;-67
2024/01/15 14:00:55;;;;;;;6.18;1.63;;;;;;;;;;5074046;28;20036;-67
2024/01/15 14:03:21;;;;;;;3.28;1.35;;;;;;;;;;5073942;28;20063;-68
2024/01/15 14:05:46;;;;;;;2.88;1.67;;;;;;;;;;5074042;28;20471;-67
2024/01/15 14:08:12;;;;;;;3.05;0.95;;;;;;;;;;5073920;28;20086;-67
2024/01/15 14:10:37;;;;;;;2.42;1.33;;;;;;;;;;5073495;28;20074;-66
2024/01/15 14:13:03;;;;;;;2.92;1.08;;;;;;;;;;5073809;28;20016;-67
2024/01/15 14:15:29;;;;;;;3.72;1.30;;;;;;;;;;5073535;28;20077;-68
2024/01/15 14:17:54;;;;;;;1.55;1.10;;;;;;;;;;5073832;28;20025;-66
2024/01/15 14:20:19;;;;;;;1.55;0.82;;;;;;;;;;5073664;28;20035;-67
2024/01/15 14:22:45;;;;;;;10.68;4.28;;;;;;;;;;5055747;28;20062;-67
2024/01/15 14:25:10;;;;;;;9.60;3.58;;;;;;;;;;5072904;28;20095;-66
2024/01/15 14:27:36;;;;;;;13.35;6.00;;;;;;;;;;5073390;28;20021;-68
2024/01/15 14:30:03;;;;;;;19.45;8.70;;;;;;;;;;5073474;28;20027;-67
2024/01/15 14:32:28;;;;;;;4.60;2.13;;;;;;;;;;5055077;28;20020;-67
2024/01/15 14:34:53;;;;;;;11.65;6.78;;;;;;;;;;5073392;28;20494;-67
2024/01/15 14:37:20;;;;;;;35.90;16.35;;;;;;;;;;5073002;28;20483;-67